KCSG

Columbus Airport

Columbus, Georgia, USA
METAR KCSG 221451Z 16006KT 10SM FEW012 SCT020 OVC025 25/21 A3009 RMK AO2 RAB09E19 SLP186 P0000 60000 T02500211 50005
Observed Flight Rules
May-22 @ 14:51 UTC (59 minutes ago) Marginal Visual Flight Rules
Wind Visibility Clouds
160° at 6 knots 10 miles
  • Few at 1,200' AGL
  • Scattered at 2,000' AGL
  • Overcast at 2,500' AGL
Temperatures Readings Precipitation
Current 25°C / 77°F
Dewpoint 21°C / 70°F
Humidity 79%
Altimeter 30.09" Hg
Pressure 1018.6 hPa
Elevation 135
Current Rain 0.005
METAR KCSG 221451Z 16006KT 10SM FEW012 SCT020 OVC025 25/21 A3009 RMK AO2 RAB09E19 SLP186 P0000 60000 T02500211 50005
Observed Flight Rules
May-22 @ 14:51 UTC
(59 minutes ago)
MVFR
Wind Visibility
160° at 6 knots 10 miles
Clouds
  • Few at 1,200' AGL
  • Scattered at 2,000' AGL
  • Overcast at 2,500' AGL
Temperature Dewpoint
25°C / 77°F 21°C / 70°F
Humidity Altimeter Pressure
79% 30.09" Hg 1018.6 hPa
Current Rain
0.005